Time;durP1;ratioP1;P1;durP2;ratioP2;P2;SDS_P1;SDS_P2;PMS_P1;PMS_P2;Temp;Humidity;BMP_temperature;BMP_pressure;BME280_temperature;BME280_humidity;BME280_pressure;Samples;Min_cycle;Max_cycle;Signal;HPM_P1;HPM_P2
2022/07/05 00:01:00;;;;;;;;;;;16.00;98.40;;;;;;5075973;28;19928;-80
2022/07/05 00:03:28;;;;;;;;;;;15.90;98.50;;;;;;5092539;28;19941;-77
2022/07/05 00:05:55;;;;;;;;;;;15.90;98.80;;;;;;5092093;28;20051;-78
2022/07/05 00:08:22;;;;;;;;;;;15.90;99.00;;;;;;5092519;28;20059;-76
2022/07/05 00:10:49;;;;;;;;;;;15.80;99.10;;;;;;5091473;28;19988;-76
2022/07/05 00:13:15;;;;;;;;;;;15.80;99.30;;;;;;5091240;28;19927;-76
2022/07/05 00:15:42;;;;;;;;;;;15.80;99.60;;;;;;5090072;28;19950;-76
2022/07/05 00:18:09;;;;;;;;;;;15.80;99.80;;;;;;5091831;28;19946;-76
2022/07/05 00:20:37;;;;;;;;;;;15.70;99.90;;;;;;5061291;28;19923;-76
2022/07/05 00:23:03;;;;;;;;;;;15.70;99.90;;;;;;5089780;28;19920;-76
2022/07/05 00:25:30;;;;;;;;;;;15.70;99.90;;;;;;5090456;28;19920;-76
2022/07/05 00:27:57;;;;;;;;;;;15.60;99.90;;;;;;5091370;28;20422;-76
2022/07/05 00:30:23;;;;;;;;;;;18.70;99.90;;;;;;5085669;28;20203;-76
2022/07/05 00:32:51;;;;;;;;;;;15.60;99.90;;;;;;5084523;28;20377;-76
2022/07/05 00:35:18;;;;;;;;;;;15.50;99.90;;;;;;5083885;28;19924;-76
2022/07/05 00:37:46;;;;;;;;;;;15.50;99.90;;;;;;5073108;28;19937;-76
2022/07/05 00:40:13;;;;;;;;;;;15.40;99.90;;;;;;5073598;28;19960;-76
2022/07/05 00:42:39;;;;;;;;;;;15.40;99.90;;;;;;5071208;28;20312;-76
2022/07/05 00:45:07;;;;;;;;;;;15.40;99.90;;;;;;5072256;28;19920;-76
2022/07/05 00:47:33;;;;;;;;;;;15.40;99.90;;;;;;5090696;28;19931;-76
2022/07/05 00:50:00;;;;;;;;;;;15.40;99.90;;;;;;5062146;28;19924;-76
2022/07/05 00:52:27;;;;;;;;;;;15.40;99.90;;;;;;5058112;28;19989;-76
2022/07/05 00:54:55;;;;;;;;;;;15.30;99.90;;;;;;5051499;28;19939;-75
2022/07/05 00:57:22;;;;;;;;;;;15.40;99.90;;;;;;5070213;28;19928;-74
2022/07/05 00:59:49;;;;;;;;;;;16.10;99.90;;;;;;5069652;28;19928;-75
2022/07/05 01:02:15;;;;;;;;;;;15.50;99.90;;;;;;5070678;28;19932;-75
2022/07/05 01:04:42;;;;;;;;;;;15.50;99.90;;;;;;5070468;28;19924;-76
2022/07/05 01:07:09;;;;;;;;;;;15.50;99.90;;;;;;5070160;28;19924;-76
2022/07/05 01:09:36;;;;;;;;;;;15.50;99.90;;;;;;5070576;28;19930;-76
2022/07/05 01:12:04;;;;;;;;;;;15.50;99.90;;;;;;5065952;28;20290;-76
2022/07/05 01:14:31;;;;;;;;;;;15.50;99.90;;;;;;5076176;28;20253;-76
2022/07/05 01:16:58;;;;;;;;;;;15.50;99.90;;;;;;5063062;28;19937;-76
2022/07/05 01:19:25;;;;;;;;;;;15.50;99.90;;;;;;5066490;28;20202;-75
2022/07/05 01:21:51;;;;;;;;;;;15.50;99.90;;;;;;5079855;28;20003;-75
2022/07/05 01:24:20;;;;;;;;;;;15.60;99.90;;;;;;5090962;28;19931;-75
2022/07/05 01:26:48;;;;;;;;;;;15.60;99.90;;;;;;5067936;28;19920;-75
2022/07/05 01:29:15;;;;;;;;;;;15.60;99.90;;;;;;5068240;28;19920;-75
2022/07/05 01:31:42;;;;;;;;;;;15.50;99.90;;;;;;5068441;28;19935;-75
2022/07/05 01:34:09;;;;;;;;;;;15.50;99.90;;;;;;5069897;28;19927;-75
2022/07/05 01:36:36;;;;;;;;;;;15.40;99.90;;;;;;5072369;28;20006;-75
2022/07/05 01:39:03;;;;;;;;;;;15.40;99.90;;;;;;5088145;28;19923;-75
2022/07/05 01:41:31;;;;;;;;;;;15.40;99.90;;;;;;5051369;28;19924;-74
2022/07/05 01:43:58;;;;;;;;;;;15.30;99.90;;;;;;5052100;28;20238;-75
2022/07/05 01:46:26;;;;;;;;;;;15.30;99.90;;;;;;5071759;28;19946;-75
2022/07/05 01:48:57;;;;;;;;;;;15.20;99.90;;;;;;5068661;28;20257;-75
2022/07/05 01:51:26;;;;;;;;;;;15.20;99.90;;;;;;5084793;28;20049;-76
2022/07/05 01:53:53;;;;;;;;;;;15.20;99.90;;;;;;5058834;28;19998;-74
2022/07/05 01:56:20;;;;;;;;;;;15.20;99.90;;;;;;5056630;28;19935;-75
2022/07/05 01:58:49;;;;;;;;;;;15.20;99.90;;;;;;5070606;28;19971;-76
2022/07/05 02:01:16;;;;;;;;;;;15.20;99.90;;;;;;5054557;28;19920;-76
2022/07/05 02:03:44;;;;;;;;;;;15.20;99.90;;;;;;5061316;28;19924;-75
2022/07/05 02:06:11;;;;;;;;;;;15.20;99.90;;;;;;5097248;22;19934;-76
2022/07/05 02:08:37;;;;;;;;;;;15.20;99.90;;;;;;5109621;27;19924;-76
2022/07/05 02:11:09;;;;;;;;;;;15.20;99.90;;;;;;5104022;28;20395;-76
2022/07/05 02:13:37;;;;;;;;;;;15.20;99.90;;;;;;5111108;28;19966;-76
2022/07/05 02:16:06;;;;;;;;;;;15.20;99.90;;;;;;5103244;28;19924;-77
2022/07/05 02:18:32;;;;;;;;;;;15.30;99.90;;;;;;5093652;28;19932;-77
2022/07/05 02:21:00;;;;;;;;;;;15.30;99.90;;;;;;5090530;28;20016;-77
2022/07/05 02:23:26;;;;;;;;;;;15.30;99.90;;;;;;5088478;28;20006;-77
2022/07/05 02:25:54;;;;;;;;;;;15.30;99.90;;;;;;5090650;28;19950;-76
2022/07/05 02:28:20;;;;;;;;;;;14.80;99.90;;;;;;5083585;28;19924;-76
2022/07/05 02:30:50;;;;;;;;;;;15.30;99.90;;;;;;5072686;28;19925;-77
2022/07/05 02:33:18;;;;;;;;;;;15.30;99.90;;;;;;5089853;28;19924;-77
2022/07/05 02:35:45;;;;;;;;;;;15.20;99.90;;;;;;5074878;28;19935;-76
2022/07/05 02:38:12;;;;;;;;;;;15.20;99.90;;;;;;5093571;28;20154;-77
2022/07/05 02:40:39;;;;;;;;;;;15.10;99.90;;;;;;5098208;28;19959;-76
2022/07/05 02:43:06;;;;;;;;;;;15.10;99.90;;;;;;5090991;28;19931;-76
2022/07/05 02:45:33;;;;;;;;;;;15.10;99.90;;;;;;5092393;28;20006;-76
2022/07/05 02:48:01;;;;;;;;;;;15.10;99.90;;;;;;5082660;28;20019;-76
2022/07/05 02:50:32;;;;;;;;;;;15.10;99.90;;;;;;5090912;28;20380;-76
2022/07/05 02:52:59;;;;;;;;;;;15.20;99.90;;;;;;5093540;28;19999;-76
2022/07/05 02:55:26;;;;;;;;;;;15.20;99.90;;;;;;5104806;28;19934;-76
2022/07/05 02:57:53;;;;;;;;;;;15.20;99.90;;;;;;5105740;28;19924;-76
2022/07/05 03:00:21;;;;;;;;;;;15.20;99.90;;;;;;5096754;28;20369;-76
2022/07/05 03:02:49;;;;;;;;;;;15.20;99.90;;;;;;5091970;28;19924;-76
2022/07/05 03:05:16;;;;;;;;;;;15.10;99.90;;;;;;5089216;28;19942;-77
2022/07/05 03:07:53;;;;;;;;;;;15.10;99.90;;;;;;5082192;28;19931;-77
2022/07/05 03:10:20;;;;;;;;;;;15.00;99.90;;;;;;5089733;28;20469;-76
2022/07/05 03:12:47;;;;;;;;;;;15.00;99.90;;;;;;5077780;28;20381;-77
2022/07/05 03:15:15;;;;;;;;;;;14.80;99.90;;;;;;5090385;28;20446;-77
2022/07/05 03:17:43;;;;;;;;;;;14.80;99.90;;;;;;5082304;28;20349;-77
2022/07/05 03:20:10;;;;;;;;;;;14.80;99.90;;;;;;5083230;28;20156;-77
2022/07/05 03:22:37;;;;;;;;;;;14.70;99.90;;;;;;5073580;28;20360;-75
2022/07/05 03:25:07;;;;;;;;;;;14.70;99.90;;;;;;5086596;28;20214;-76
2022/07/05 03:27:34;;;;;;;;;;;14.60;99.90;;;;;;5076107;28;19974;-76
2022/07/05 03:30:01;;;;;;;;;;;14.60;99.90;;;;;;5091283;28;19924;-76
2022/07/05 03:32:31;;;;;;;;;;;14.60;99.90;;;;;;5092666;28;19928;-76
2022/07/05 03:34:58;;;;;;;;;;;14.50;99.90;;;;;;5089186;28;19931;-77
2022/07/05 03:37:25;;;;;;;;;;;14.50;99.90;;;;;;5081939;28;20303;-77
2022/07/05 03:39:53;;;;;;;;;;;14.50;99.90;;;;;;5089486;28;19924;-77
2022/07/05 03:42:21;;;;;;;;;;;14.40;99.90;;;;;;5088969;28;19985;-77
2022/07/05 03:44:48;;;;;;;;;;;14.40;99.90;;;;;;5090620;28;19928;-77
2022/07/05 03:47:15;;;;;;;;;;;14.40;99.90;;;;;;5089517;28;20555;-76
2022/07/05 03:49:44;;;;;;;;;;;14.50;99.90;;;;;;5088714;28;20428;-76
2022/07/05 03:52:11;;;;;;;;;;;14.40;99.90;;;;;;5088985;28;19958;-77
2022/07/05 03:54:37;;;;;;;;;;;14.50;99.90;;;;;;5071514;28;20017;-76
2022/07/05 03:57:06;;;;;;;;;;;14.50;99.90;;;;;;5069158;28;19924;-77
2022/07/05 03:59:35;;;;;;;;;;;14.50;99.90;;;;;;5068391;28;19986;-76
2022/07/05 04:02:02;;;;;;;;;;;14.50;99.90;;;;;;5069055;28;19928;-77
2022/07/05 04:04:30;;;;;;;;;;;14.50;99.90;;;;;;5068842;28;19927;-77
2022/07/05 04:06:57;;;;;;;;;;;14.60;99.90;;;;;;5078999;28;20304;-76
2022/07/05 04:09:23;;;;;;;;;;;14.60;99.90;;;;;;5081041;28;20042;-76
2022/07/05 04:11:50;;;;;;;;;;;14.70;99.90;;;;;;5096790;28;19924;-77
2022/07/05 04:14:17;;;;;;;;;;;14.70;99.90;;;;;;5088353;28;19920;-76
2022/07/05 04:16:47;;;;;;;;;;;14.70;99.90;;;;;;5096159;28;19930;-76
2022/07/05 04:19:14;;;;;;;;;;;14.70;99.90;;;;;;5109015;28;19919;-76
2022/07/05 04:21:40;;;;;;;;;;;14.60;99.90;;;;;;5078969;28;20019;-76
2022/07/05 04:24:08;;;;;;;;;;;14.60;99.90;;;;;;5088442;28;20007;-76
2022/07/05 04:26:35;;;;;;;;;;;14.60;99.90;;;;;;5069852;28;20076;-77
2022/07/05 04:29:02;;;;;;;;;;;14.70;99.90;;;;;;5072439;28;19952;-76
2022/07/05 04:31:34;;;;;;;;;;;14.70;99.90;;;;;;5086336;28;19923;-77
2022/07/05 04:34:03;;;;;;;;;;;14.80;99.90;;;;;;5087872;28;19920;-76
2022/07/05 04:36:32;;;;;;;;;;;14.80;99.90;;;;;;5081787;28;20399;-77
2022/07/05 04:39:00;;;;;;;;;;;14.80;99.90;;;;;;5077291;28;20019;-77
2022/07/05 04:41:29;;;;;;;;;;;14.90;99.90;;;;;;5098559;28;19931;-76
2022/07/05 04:43:56;;;;;;;;;;;14.90;99.90;;;;;;5103677;28;19927;-76
2022/07/05 04:46:23;;;;;;;;;;;14.90;99.90;;;;;;5100114;28;20357;-77
2022/07/05 04:48:51;;;;;;;;;;;14.90;99.90;;;;;;5107529;28;19923;-77
2022/07/05 04:51:20;;;;;;;;;;;15.00;99.90;;;;;;5106435;28;19924;-78
2022/07/05 04:53:47;;;;;;;;;;;15.10;99.90;;;;;;5098881;28;19958;-77
2022/07/05 04:56:14;;;;;;;;;;;15.10;99.90;;;;;;5081068;28;19920;-77
2022/07/05 04:58:40;;;;;;;;;;;15.20;99.90;;;;;;5076031;28;19935;-77
2022/07/05 05:01:07;;;;;;;;;;;15.30;99.90;;;;;;5096540;28;20273;-77
2022/07/05 05:03:34;;;;;;;;;;;15.40;99.90;;;;;;5082323;28;19973;-77
2022/07/05 05:06:01;;;;;;;;;;;15.50;99.90;;;;;;5078322;28;19923;-77
2022/07/05 05:08:29;;;;;;;;;;;15.60;99.90;;;;;;5085364;28;20006;-76
2022/07/05 05:10:55;;;;;;;;;;;15.70;99.90;;;;;;5079309;28;19924;-76
2022/07/05 05:13:22;;;;;;;;;;;15.80;99.90;;;;;;5085905;28;19991;-76
2022/07/05 05:15:49;;;;;;;;;;;16.10;99.90;;;;;;5069025;28;19935;-76
2022/07/05 05:18:18;;;;;;;;;;;16.10;99.90;;;;;;5087175;28;19923;-77
2022/07/05 05:20:44;;;;;;;;;;;17.30;99.90;;;;;;5086410;28;19924;-76
2022/07/05 05:23:11;;;;;;;;;;;16.50;99.90;;;;;;5093201;28;19928;-76
2022/07/05 05:25:39;;;;;;;;;;;16.60;99.90;;;;;;5081465;28;19925;-75
2022/07/05 05:28:06;;;;;;;;;;;16.90;99.90;;;;;;5067709;28;19924;-76
2022/07/05 05:30:33;;;;;;;;;;;17.20;99.90;;;;;;5073318;28;19925;-76
2022/07/05 05:32:59;;;;;;;;;;;19.30;99.90;;;;;;5067789;28;19947;-76
2022/07/05 05:35:26;;;;;;;;;;;17.70;99.90;;;;;;5073000;28;19924;-76
2022/07/05 05:37:54;;;;;;;;;;;20.30;99.90;;;;;;5099329;28;20016;-76
2022/07/05 05:40:21;;;;;;;;;;;19.60;99.90;;;;;;5092699;28;19930;-76
2022/07/05 05:42:50;;;;;;;;;;;21.00;99.90;;;;;;5087945;28;19942;-76
2022/07/05 05:45:16;;;;;;;;;;;24.60;99.90;;;;;;5086471;28;19959;-75
2022/07/05 05:47:44;;;;;;;;;;;24.70;99.90;;;;;;5086237;28;20345;-76
2022/07/05 05:50:11;;;;;;;;;;;26.70;99.90;;;;;;5083466;28;20362;-76
2022/07/05 05:52:37;;;;;;;;;;;28.40;99.90;;;;;;5086972;28;19927;-77
2022/07/05 05:55:05;;;;;;;;;;;29.10;99.90;;;;;;5082666;28;19935;-76
2022/07/05 05:57:32;;;;;;;;;;;29.10;99.90;;;;;;5079841;28;19948;-75
2022/07/05 06:00:00;;;;;;;;;;;29.70;99.90;;;;;;5093830;28;20295;-76
2022/07/05 06:02:27;;;;;;;;;;;30.70;99.90;;;;;;5093590;28;19977;-77
2022/07/05 06:04:53;;;;;;;;;;;30.70;99.90;;;;;;5079040;28;20387;-77
2022/07/05 06:07:20;;;;;;;;;;;30.50;99.90;;;;;;5083947;28;20332;-75
2022/07/05 06:09:47;;;;;;;;;;;30.40;99.90;;;;;;5077956;28;19928;-77
2022/07/05 06:12:14;;;;;;;;;;;30.50;99.90;;;;;;5093432;28;19928;-76
2022/07/05 06:14:42;;;;;;;;;;;30.10;98.60;;;;;;5085043;28;20030;-76
2022/07/05 06:17:10;;;;;;;;;;;30.10;99.10;;;;;;5093632;28;19981;-76
2022/07/05 06:19:37;;;;;;;;;;;30.60;97.80;;;;;;5073536;28;19940;-77
2022/07/05 06:22:04;;;;;;;;;;;31.50;96.20;;;;;;5095080;28;20411;-77
2022/07/05 06:24:30;;;;;;;;;;;32.50;94.90;;;;;;5081493;28;19923;-76
2022/07/05 06:26:57;;;;;;;;;;;33.90;94.70;;;;;;5089914;28;19940;-77
2022/07/05 06:29:24;;;;;;;;;;;34.70;91.70;;;;;;5086664;28;19931;-77
2022/07/05 06:31:50;;;;;;;;;;;35.00;89.10;;;;;;5107958;28;19923;-76
2022/07/05 06:34:18;;;;;;;;;;;35.30;83.50;;;;;;5110368;28;19971;-78
2022/07/05 06:36:46;;;;;;;;;;;36.30;86.30;;;;;;5086077;28;19928;-75
2022/07/05 06:39:12;;;;;;;;;;;36.90;79.60;;;;;;5089200;28;20377;-76
2022/07/05 06:41:39;;;;;;;;;;;37.50;75.30;;;;;;5088671;28;19924;-77
2022/07/05 06:44:06;;;;;;;;;;;37.70;73.60;;;;;;5098889;28;19924;-77
2022/07/05 06:46:33;;;;;;;;;;;38.00;75.50;;;;;;5100666;28;19935;-77
2022/07/05 06:48:59;;;;;;;;;;;38.20;69.20;;;;;;5082769;28;19924;-76
2022/07/05 06:51:27;;;;;;;;;;;38.40;67.10;;;;;;5072801;28;19932;-77
2022/07/05 06:53:54;;;;;;;18.08;6.53;;;38.70;66.30;;;;;;5095692;28;20067;-78
2022/07/05 06:56:21;;;;;;;14.00;5.47;;;39.20;67.60;;;;;;5096285;28;20242;-77
2022/07/05 06:58:48;;;;;;;14.32;5.32;;;39.20;62.00;;;;;;5095243;28;20203;-77
2022/07/05 07:01:15;;;;;;;17.77;5.53;;;39.30;60.60;;;;;;5087756;28;20257;-77
2022/07/05 07:03:42;;;;;;;14.73;5.05;;;39.70;59.50;;;;;;5087893;28;20210;-77
2022/07/05 07:06:09;;;;;;;14.85;5.18;;;40.20;61.60;;;;;;5084633;28;20232;-77
2022/07/05 07:11:21;;;;;;;13.15;4.60;;;40.30;55.90;;;;;;5102602;28;20211;-76
2022/07/05 07:13:49;;;;;;;13.23;4.07;;;39.50;52.60;;;;;;5089104;28;20268;-76
2022/07/05 07:16:16;;;;;;;13.27;4.65;;;39.20;53.50;;;;;;5068778;28;20238;-77
2022/07/05 07:18:43;;;;;;;15.77;5.38;;;39.00;51.90;;;;;;5086278;28;20226;-77
2022/07/05 07:21:09;;;;;;;14.07;5.00;;;38.90;53.20;;;;;;5092507;28;20864;-77
2022/07/05 07:23:38;;;;;;;16.45;5.47;;;39.10;53.20;;;;;;5096367;28;20215;-77
2022/07/05 07:26:05;;;;;;;11.93;4.35;;;39.30;54.90;;;;;;5107676;28;20222;-76
2022/07/05 07:28:32;;;;;;;14.00;4.60;;;39.40;52.20;;;;;;5085708;28;20320;-77
2022/07/05 07:30:58;;;;;;;13.18;4.82;;;39.30;52.10;;;;;;5075485;28;20208;-77
2022/07/05 07:33:26;;;;;;;13.80;4.30;;;39.50;51.90;;;;;;5087619;28;20253;-77
2022/07/05 07:35:52;;;;;;;13.75;4.47;;;39.40;52.30;;;;;;5089048;28;20242;-76
2022/07/05 07:38:20;;;;;;;13.20;4.68;;;39.40;50.60;;;;;;5096064;28;20203;-75
2022/07/05 07:40:48;;;;;;;14.18;4.55;;;39.50;50.50;;;;;;5082288;28;20214;-75
2022/07/05 07:43:15;;;;;;;11.82;4.47;;;39.60;50.60;;;;;;5098706;28;20211;-74
2022/07/05 07:45:42;;;;;;;13.35;4.32;;;40.10;50.30;;;;;;5082185;28;20259;-76
2022/07/05 07:48:09;;;;;;;13.93;4.53;;;40.10;48.30;;;;;;5090193;28;20311;-76
2022/07/05 07:50:36;;;;;;;12.35;4.63;;;40.40;49.20;;;;;;5090581;28;20660;-76
2022/07/05 07:53:03;;;;;;;14.38;4.53;;;39.70;47.70;;;;;;5074375;28;20208;-75
2022/07/05 07:55:30;;;;;;;11.60;3.80;;;37.70;49.20;;;;;;5088330;28;20310;-75
2022/07/05 07:57:59;;;;;;;14.13;3.78;;;37.50;48.40;;;;;;5088831;28;20196;-76
2022/07/05 08:00:26;;;;;;;14.15;3.85;;;36.10;48.30;;;;;;5088370;28;20214;-75
2022/07/05 08:02:53;;;;;;;21.80;5.13;;;34.80;49.50;;;;;;5077321;28;20260;-77
2022/07/05 08:05:20;;;;;;;22.45;5.25;;;32.30;50.80;;;;;;5092756;28;20620;-78
2022/07/05 08:07:47;;;;;;;20.42;5.03;;;32.20;51.70;;;;;;5102679;28;20218;-75
2022/07/05 08:10:14;;;;;;;14.53;4.30;;;30.90;52.80;;;;;;5107090;28;20220;-75
2022/07/05 08:12:40;;;;;;;17.60;4.53;;;29.90;54.30;;;;;;5092049;28;20202;-76
2022/07/05 08:15:11;;;;;;;16.40;4.07;;;28.70;55.90;;;;;;5102218;28;20203;-75
2022/07/05 08:21:30;;;;;;;15.53;4.50;;;28.70;56.50;;;;;;5107040;28;20214;-75
2022/07/05 08:23:09;;;;;;;14.50;4.27;;;28.10;58.30;;;;;;5082650;28;20199;-73
2022/07/05 08:25:36;;;;;;;13.93;4.50;;;28.40;58.10;;;;;;5067592;28;20583;-75
2022/07/05 08:28:03;;;;;;;20.30;4.53;;;28.50;59.20;;;;;;5075641;28;20692;-75
2022/07/05 08:30:32;;;;;;;14.93;4.40;;;29.00;59.30;;;;;;5067752;28;20211;-76
2022/07/05 08:32:58;;;;;;;14.30;4.30;;;29.50;58.80;;;;;;5082514;28;20209;-75
2022/07/05 08:35:25;;;;;;;13.83;4.07;;;29.50;57.40;;;;;;5078789;28;20330;-74
2022/07/05 08:37:52;;;;;;;15.97;4.43;;;29.50;58.00;;;;;;5086340;28;20211;-75
2022/07/05 08:40:26;;;;;;;13.82;3.78;;;29.30;58.40;;;;;;5083677;28;20216;-75
2022/07/05 08:42:56;;;;;;;14.68;4.43;;;29.30;59.30;;;;;;5073293;28;20322;-75
2022/07/05 08:45:26;;;;;;;15.10;4.50;;;29.30;58.50;;;;;;5074801;28;20208;-75
2022/07/05 08:47:56;;;;;;;15.70;4.43;;;29.30;58.90;;;;;;5099376;28;20264;-75
2022/07/05 08:50:25;;;;;;;14.15;4.43;;;29.30;59.10;;;;;;5082417;28;20316;-76
2022/07/05 08:52:53;;;;;;;15.45;4.57;;;30.50;59.70;;;;;;5066563;28;20197;-76
2022/07/05 08:55:20;;;;;;;13.70;3.90;;;30.40;58.90;;;;;;5074370;28;20264;-76
2022/07/05 08:57:47;;;;;;;13.98;4.00;;;30.50;59.30;;;;;;5081498;28;20602;-76
2022/07/05 09:00:15;;;;;;;12.27;3.22;;;31.00;58.60;;;;;;5096710;28;20233;-76
2022/07/05 09:02:42;;;;;;;;;;;30.90;57.30;;;;;;5091103;28;20204;-76
2022/07/05 09:05:12;;;;;;;;;;;30.50;57.00;;;;;;5087634;28;19926;-76
2022/07/05 09:07:41;;;;;;;;;;;30.10;57.00;;;;;;5090663;28;19927;-77
2022/07/05 09:10:09;;;;;;;;;;;30.10;57.70;;;;;;5068230;28;19924;-76
2022/07/05 09:12:38;;;;;;;;;;;29.90;58.80;;;;;;5073554;28;19981;-76
2022/07/05 09:15:05;;;;;;;;;;;29.80;58.40;;;;;;5087499;28;20019;-75
2022/07/05 09:17:32;;;;;;;;;;;29.80;58.50;;;;;;5085083;28;19968;-75
2022/07/05 09:20:07;;;;;;;;;;;29.80;59.10;;;;;;5067359;28;19920;-75
2022/07/05 09:22:44;;;;;;;;;;;27.90;57.30;;;;;;5079832;28;19976;-75
2022/07/05 09:25:14;;;;;;;;;;;28.90;58.30;;;;;;5085832;28;19959;-77
2022/07/05 09:27:47;;;;;;;;;;;28.90;58.80;;;;;;5092931;28;19920;-75
2022/07/05 09:30:24;;;;;;;;;;;28.70;58.90;;;;;;5084178;28;19923;-76
2022/07/05 09:32:59;;;;;;;;;;;28.70;59.30;;;;;;5067672;28;20292;-76
2022/07/05 09:35:27;;;;;;;;;;;29.20;58.80;;;;;;5080012;28;19924;-76
2022/07/05 09:37:55;;;;;;;;;;;29.30;59.30;;;;;;5076780;28;19924;-77
2022/07/05 09:40:21;;;;;;;;;;;29.60;59.40;;;;;;5089467;28;20309;-76
2022/07/05 09:42:48;;;;;;;;;;;29.80;59.10;;;;;;5080601;28;19955;-75
2022/07/05 09:45:22;;;;;;;;;;;29.90;58.80;;;;;;5083940;28;19967;-75
2022/07/05 09:47:48;;;;;;;;;;;30.00;59.10;;;;;;5089217;28;20147;-75
2022/07/05 09:50:15;;;;;;;;;;;30.00;57.80;;;;;;5093730;28;19993;-76
2022/07/05 09:52:42;;;;;;;;;;;29.90;55.70;;;;;;5101902;28;19920;-76
2022/07/05 09:55:11;;;;;;;;;;;29.20;54.80;;;;;;5079680;28;19928;-75
2022/07/05 09:57:39;;;;;;;;;;;29.20;55.20;;;;;;5087382;28;20347;-75
2022/07/05 10:00:07;;;;;;;;;;;28.50;56.50;;;;;;5080131;28;19982;-75
2022/07/05 10:02:38;;;;;;;;;;;28.10;57.50;;;;;;5067455;28;19959;-75
2022/07/05 10:05:11;;;;;;;;;;;28.00;58.00;;;;;;5070281;28;20424;-77
2022/07/05 10:07:40;;;;;;;;;;;28.10;57.60;;;;;;5082297;28;20288;-75
2022/07/05 10:10:07;;;;;;;;;;;28.20;58.00;;;;;;5074654;28;19924;-75
2022/07/05 10:12:36;;;;;;;;;;;28.10;57.90;;;;;;5067621;28;19968;-75
2022/07/05 10:15:03;;;;;;;;;;;27.90;58.00;;;;;;5097415;28;19931;-76
2022/07/05 10:17:31;;;;;;;;;;;27.80;58.00;;;;;;5111628;28;19920;-76
2022/07/05 10:19:59;;;;;;;;;;;27.60;59.00;;;;;;5089533;28;20292;-75
2022/07/05 10:22:27;;;;;;;;;;;27.30;59.50;;;;;;5102605;28;19928;-75
2022/07/05 10:24:55;;;;;;;;;;;27.10;60.40;;;;;;5111598;28;19920;-76
2022/07/05 10:27:23;;;;;;;;;;;26.80;59.70;;;;;;5111952;28;19984;-76
2022/07/05 10:29:52;;;;;;;;;;;26.60;59.80;;;;;;5089974;28;20236;-76
2022/07/05 10:32:19;;;;;;;;;;;26.40;61.20;;;;;;5079074;28;19930;-75
2022/07/05 10:34:47;;;;;;;;;;;26.40;60.50;;;;;;5091177;28;19928;-75
2022/07/05 10:37:13;;;;;;;;;;;26.30;59.10;;;;;;5089908;28;19924;-76
2022/07/05 10:39:40;;;;;;;;;;;26.40;60.00;;;;;;5081785;28;20293;-76
2022/07/05 10:42:07;;;;;;;;;;;26.40;60.30;;;;;;5087246;28;19927;-75
2022/07/05 10:44:35;;;;;;;;;;;26.50;60.90;;;;;;5094756;28;19923;-75
2022/07/05 10:47:13;;;;;;;;;;;26.40;60.30;;;;;;5095375;28;19939;-76
2022/07/05 10:49:40;;;;;;;;;;;26.30;61.80;;;;;;5079415;28;19923;-75
2022/07/05 10:52:22;;;;;;;;;;;26.70;63.10;;;;;;5088099;28;20365;-76
2022/07/05 10:55:04;;;;;;;;;;;26.20;62.90;;;;;;5091774;28;20125;-76
2022/07/05 10:57:30;;;;;;;;;;;26.20;62.90;;;;;;5092658;28;19928;-76
2022/07/05 11:00:07;;;;;;;;;;;26.20;64.20;;;;;;5099202;28;19924;-76
2022/07/05 11:02:35;;;;;;;;;;;26.20;63.70;;;;;;5086299;28;19984;-76
2022/07/05 11:05:02;;;;;;;;;;;26.30;63.90;;;;;;5090196;28;19920;-76
2022/07/05 11:07:47;;;;;;;;;;;26.30;63.30;;;;;;5080007;28;20377;-77
2022/07/05 11:10:14;;;;;;;;;;;26.20;64.20;;;;;;5078017;28;20385;-77
2022/07/05 11:12:41;;;;;;;;;;;26.20;65.30;;;;;;5083096;28;20304;-77
2022/07/05 11:15:10;;;;;;;;;;;26.60;64.70;;;;;;5078723;28;20023;-76
2022/07/05 11:17:38;;;;;;;;;;;26.60;65.30;;;;;;5080300;28;19952;-77
2022/07/05 11:20:13;;;;;;;;;;;26.60;61.40;;;;;;5091558;28;20571;-76
2022/07/05 11:22:41;;;;;;;;;;;26.40;59.70;;;;;;5097416;28;20330;-77
2022/07/05 11:25:09;;;;;;;;;;;25.90;60.50;;;;;;5084489;28;19966;-77
2022/07/05 11:27:36;;;;;;;;;;;25.90;61.10;;;;;;5083296;28;20018;-76
2022/07/05 11:30:04;;;;;;;;;;;25.80;61.80;;;;;;5110902;28;19923;-77
2022/07/05 11:32:38;;;;;;;;;;;25.70;62.50;;;;;;5104090;28;19924;-77
2022/07/05 11:35:17;;;;;;;;;;;25.70;62.90;;;;;;5111702;28;19927;-76
2022/07/05 11:38:15;;;;;;;;;;;25.80;63.40;;;;;;5088910;28;19942;-76
2022/07/05 11:40:41;;;;;;;;;;;26.00;64.00;;;;;;5002777;28;19921;-76
2022/07/05 11:43:09;;;;;;;;;;;26.20;62.70;;;;;;5070520;28;19927;-76
2022/07/05 11:45:35;;;;;;;;;;;26.40;62.60;;;;;;5094309;28;19989;-76
2022/07/05 11:48:04;;;;;;;;;;;26.50;63.40;;;;;;5083251;28;19920;-76
2022/07/05 11:50:31;;;;;;;;;;;26.80;61.60;;;;;;5099613;28;19923;-76
2022/07/05 11:52:59;;;;;;;;;;;27.00;60.50;;;;;;5095509;28;19942;-76
2022/07/05 11:55:27;;;;;;;;;;;25.20;57.30;;;;;;5097933;28;19928;-77
2022/07/05 11:57:54;;;;;;;;;;;27.20;58.50;;;;;;5088588;28;20374;-77
2022/07/05 12:00:28;;;;;;;;;;;27.20;59.00;;;;;;5094541;28;19919;-77
2022/07/05 12:02:55;;;;;;;;;;;27.20;58.60;;;;;;5094973;28;19920;-76
2022/07/05 12:05:23;;;;;;;;;;;26.80;58.60;;;;;;5096653;28;19931;-76
2022/07/05 12:07:50;;;;;;;;;;;27.30;59.30;;;;;;5095350;28;20027;-76
2022/07/05 12:13:04;;;;;;;;;;;26.60;59.50;;;;;;5083268;28;19920;-77
2022/07/05 12:15:31;;;;;;;;;;;26.80;59.70;;;;;;5089856;28;19987;-77
2022/07/05 12:18:03;;;;;;;;;;;26.80;59.70;;;;;;5099624;28;19923;-77
2022/07/05 12:20:32;;;;;;;;;;;27.10;60.00;;;;;;5093075;28;19968;-76
2022/07/05 12:23:00;;;;;;;;;;;27.30;60.50;;;;;;5085493;28;20010;-76
2022/07/05 12:25:27;;;;;;;;;;;27.30;60.70;;;;;;5092814;28;20320;-84
2022/07/05 12:27:55;;;;;;;;;;;27.30;60.70;;;;;;5089122;28;19947;-85
2022/07/05 12:30:22;;;;;;;;;;;27.30;60.40;;;;;;5093085;28;19931;-84
2022/07/05 12:32:56;;;;;;;;;;;27.20;60.30;;;;;;5101631;28;19920;-84
2022/07/05 12:35:33;;;;;;;;;;;27.30;60.90;;;;;;5082421;28;19948;-84
2022/07/05 12:38:04;;;;;;;;;;;27.30;60.50;;;;;;5087429;28;19932;-84
2022/07/05 12:40:31;;;;;;;;;;;27.20;60.80;;;;;;5092628;28;19927;-85
2022/07/05 12:43:01;;;;;;;;;;;27.20;61.30;;;;;;5091758;28;19923;-83
2022/07/05 12:45:28;;;;;;;;;;;27.20;61.00;;;;;;5097193;28;19924;-84
2022/07/05 12:47:56;;;;;;;;;;;27.20;61.60;;;;;;5083429;28;20053;-85
2022/07/05 12:50:24;;;;;;;;;;;27.40;61.50;;;;;;5090333;28;19927;-84
2022/07/05 12:58:01;;;;;;;;;;;27.50;61.40;;;;;;5097725;28;20300;-84
2022/07/05 12:58:45;;;;;;;;;;;27.90;61.30;;;;;;5088030;28;19927;-84
2022/07/05 13:01:19;;;;;;;;;;;28.30;60.30;;;;;;5094508;28;19923;-84
2022/07/05 13:03:56;;;;;;;;;;;28.40;60.00;;;;;;5101638;28;19920;-84
2022/07/05 13:06:23;;;;;;;;;;;28.40;59.70;;;;;;5084811;28;19946;-83
2022/07/05 13:08:58;;;;;;;;;;;28.40;59.70;;;;;;5090961;28;19935;-83
2022/07/05 13:11:31;;;;;;;;;;;28.40;58.90;;;;;;5092955;28;19924;-83
2022/07/05 13:13:57;;;;;;;;;;;28.30;59.10;;;;;;5103372;28;20038;-83
2022/07/05 13:16:25;;;;;;;;;;;28.10;58.70;;;;;;5108424;28;19924;-83
2022/07/05 13:18:52;;;;;;;;;;;28.00;59.00;;;;;;5091816;28;19920;-83
2022/07/05 13:21:19;;;;;;;;;;;28.00;59.30;;;;;;5095127;28;19934;-82
2022/07/05 13:23:45;;;;;;;;;;;28.10;60.00;;;;;;5103771;28;19927;-81
2022/07/05 13:26:13;;;;;;;;;;;28.30;59.50;;;;;;5114314;28;19920;-81
2022/07/05 13:28:40;;;;;;;;;;;26.30;58.80;;;;;;5102210;28;19943;-82
2022/07/05 13:31:07;;;;;;;;;;;28.20;59.30;;;;;;5095145;28;20573;-84
2022/07/05 13:33:33;;;;;;;;;;;28.00;59.60;;;;;;5090334;28;19927;-83
2022/07/05 13:36:00;;;;;;;;;;;28.00;59.80;;;;;;5091826;28;20033;-84
2022/07/05 13:38:27;;;;;;;;;;;28.00;59.90;;;;;;5080541;28;19928;-85
2022/07/05 13:40:53;;;;;;;;;;;28.10;59.90;;;;;;5093823;28;20025;-83
2022/07/05 13:43:21;;;;;;;;;;;28.30;60.70;;;;;;5098303;28;19928;-83
2022/07/05 13:45:49;;;;;;;;;;;28.10;59.90;;;;;;5086349;28;20424;-83
2022/07/05 13:48:16;;;;;;;;;;;28.30;60.70;;;;;;5094357;28;19926;-83
2022/07/05 13:50:43;;;;;;;;;;;28.40;61.00;;;;;;5107573;28;19924;-83
2022/07/05 13:53:09;;;;;;;;;;;28.20;60.80;;;;;;5099895;28;19935;-83
2022/07/05 13:55:37;;;;;;;;;;;27.90;60.40;;;;;;5100920;28;19920;-84
2022/07/05 13:58:04;;;;;;;;;;;27.90;61.10;;;;;;5098021;28;19923;-85
2022/07/05 14:00:32;;;;;;;;;;;27.70;60.50;;;;;;5086096;28;19931;-84
2022/07/05 14:02:59;;;;;;;;;;;27.20;61.50;;;;;;5079975;28;19924;-85
2022/07/05 14:05:25;;;;;;;;;;;26.90;61.30;;;;;;5091811;28;19950;-84
2022/07/05 14:07:52;;;;;;;;;;;26.80;62.80;;;;;;5097648;28;19938;-85
2022/07/05 14:10:21;;;;;;;;;;;26.70;63.50;;;;;;5098077;28;19924;-84
2022/07/05 14:12:48;;;;;;;;;;;26.40;63.30;;;;;;5104753;28;19927;-85
2022/07/05 14:15:15;;;;;;;;;;;25.80;63.80;;;;;;5092187;28;19996;-83
2022/07/05 14:17:43;;;;;;;;;;;25.90;64.10;;;;;;5099960;28;19946;-84